Time;durP1;ratioP1;P1;durP2;ratioP2;P2;SDS_P1;SDS_P2;PMS_P1;PMS_P2;Temp;Humidity;BMP_temperature;BMP_pressure;BME280_temperature;BME280_humidity;BME280_pressure;Samples;Min_cycle;Max_cycle;Signal;HPM_P1;HPM_P2
2021/05/08 00:02:24;;;;;;;0.80;0.68;;;10.40;99.90;;;;;;5053628;28;20040;-70
2021/05/08 00:04:50;;;;;;;0.75;0.60;;;10.40;99.90;;;;;;5053512;28;20021;-69
2021/05/08 00:07:16;;;;;;;1.55;0.63;;;10.40;99.90;;;;;;5035546;28;20359;-70
2021/05/08 00:09:43;;;;;;;0.50;0.50;;;10.40;99.90;;;;;;5053386;28;20033;-68
2021/05/08 00:12:09;;;;;;;0.60;0.60;;;10.40;99.90;;;;;;5035588;28;20029;-69
2021/05/08 00:14:35;;;;;;;0.52;0.50;;;10.40;99.90;;;;;;5068581;28;20093;-69
2021/05/08 00:17:01;;;;;;;0.95;0.80;;;10.30;99.90;;;;;;5053278;28;20101;-68
2021/05/08 00:19:27;;;;;;;0.50;0.50;;;10.40;99.90;;;;;;5035373;28;20115;-69
2021/05/08 00:21:53;;;;;;;0.85;0.85;;;10.30;99.90;;;;;;5053281;28;20032;-70
2021/05/08 00:24:20;;;;;;;2.45;0.80;;;10.30;99.90;;;;;;5068612;28;20029;-70
2021/05/08 00:26:46;;;;;;;0.50;0.50;;;10.30;99.90;;;;;;5053171;28;20029;-71
2021/05/08 00:29:12;;;;;;;0.60;0.60;;;10.30;99.90;;;;;;5053107;28;20465;-70
2021/05/08 00:31:38;;;;;;;0.50;0.50;;;10.40;99.90;;;;;;5052564;28;20021;-70
2021/05/08 00:34:03;;;;;;;0.40;0.40;;;10.30;99.90;;;;;;5052987;28;20025;-70
2021/05/08 00:36:29;;;;;;;0.73;0.70;;;10.40;99.90;;;;;;5053047;28;20036;-68
2021/05/08 00:38:55;;;;;;;0.63;0.63;;;10.40;99.90;;;;;;5052697;28;20025;-68
2021/05/08 00:41:21;;;;;;;0.82;0.70;;;10.30;99.90;;;;;;5053242;28;20025;-70
2021/05/08 00:43:57;;;;;;;0.60;0.60;;;10.30;99.90;;;;;;5052741;28;20036;-69
2021/05/08 00:46:24;;;;;;;0.50;0.50;;;10.30;99.90;;;;;;5034802;28;20110;-68
2021/05/08 00:48:52;;;;;;;1.92;0.88;;;10.30;99.90;;;;;;5052852;28;20461;-67
2021/05/08 00:51:19;;;;;;;2.28;0.73;;;10.30;99.90;;;;;;5052655;28;20441;-67
2021/05/08 00:53:45;;;;;;;2.22;1.08;;;10.40;99.90;;;;;;5035009;28;20469;-69
2021/05/08 00:56:12;;;;;;;0.52;0.52;;;10.30;99.90;;;;;;5052835;28;20029;-67
2021/05/08 00:58:38;;;;;;;1.55;0.90;;;10.40;99.90;;;;;;5052506;28;20060;-70
2021/05/08 01:01:04;;;;;;;3.30;0.90;;;10.40;99.90;;;;;;5052854;28;20029;-68
2021/05/08 01:03:30;;;;;;;4.25;0.95;;;10.40;99.90;;;;;;5052880;28;20079;-68
2021/05/08 01:05:56;;;;;;;1.17;1.00;;;10.40;99.90;;;;;;5052738;28;20033;-68
2021/05/08 01:08:23;;;;;;;1.63;1.08;;;10.40;99.90;;;;;;5034930;28;20122;-70
2021/05/08 01:10:51;;;;;;;1.27;1.27;;;10.40;99.90;;;;;;5052993;28;20385;-69
2021/05/08 01:13:17;;;;;;;0.90;0.90;;;10.40;99.90;;;;;;5052723;28;20033;-68
2021/05/08 01:15:43;;;;;;;0.90;0.90;;;10.50;99.90;;;;;;5034678;28;20040;-69
2021/05/08 01:18:09;;;;;;;0.70;0.70;;;10.40;99.90;;;;;;5052616;28;20127;-68
2021/05/08 01:20:36;;;;;;;1.20;0.80;;;10.40;99.90;;;;;;5034757;28;20500;-68
2021/05/08 01:23:02;;;;;;;0.90;0.90;;;10.40;99.90;;;;;;5034726;28;20021;-68
2021/05/08 01:25:28;;;;;;;1.10;1.00;;;10.40;99.90;;;;;;5052602;28;20029;-67
2021/05/08 01:27:58;;;;;;;0.90;0.90;;;10.40;99.90;;;;;;5052508;28;20036;-67
2021/05/08 01:30:30;;;;;;;2.80;0.80;;;10.40;99.90;;;;;;5034638;28;20389;-68
2021/05/08 01:32:56;;;;;;;0.75;0.73;;;10.50;99.90;;;;;;5052526;28;20036;-67
2021/05/08 01:35:23;;;;;;;1.15;1.05;;;10.50;99.90;;;;;;5052403;28;20116;-68
2021/05/08 01:38:22;;;;;;;1.05;1.02;;;10.50;99.90;;;;;;5052402;28;20037;-69
2021/05/08 01:40:59;;;;;;;1.10;1.00;;;10.50;99.90;;;;;;5052405;28;20025;-69
2021/05/08 01:43:25;;;;;;;1.38;1.10;;;10.50;99.90;;;;;;5037106;28;20115;-67
2021/05/08 01:45:51;;;;;;;1.35;1.27;;;10.50;99.90;;;;;;5071737;28;20120;-69
2021/05/08 01:48:16;;;;;;;1.25;1.15;;;10.50;99.90;;;;;;5056099;28;20032;-70
2021/05/08 01:50:42;;;;;;;0.90;0.85;;;10.50;99.90;;;;;;5071358;28;20033;-69
2021/05/08 01:53:08;;;;;;;1.05;1.00;;;10.50;99.90;;;;;;5056074;28;20025;-68
2021/05/08 01:55:34;;;;;;;1.10;1.02;;;10.50;99.90;;;;;;5037833;28;20370;-69
2021/05/08 01:58:00;;;;;;;1.08;0.98;;;10.50;99.90;;;;;;5037587;28;20055;-69
2021/05/08 02:00:29;;;;;;;1.85;0.93;;;10.40;99.90;;;;;;5055860;28;20025;-68
2021/05/08 02:02:56;;;;;;;1.73;1.05;;;10.50;99.90;;;;;;5056125;28;20423;-69
2021/05/08 02:05:26;;;;;;;1.65;1.10;;;10.50;99.90;;;;;;5055766;28;20089;-70
2021/05/08 02:07:52;;;;;;;1.35;1.35;;;10.50;99.90;;;;;;5037854;28;20382;-68
2021/05/08 02:10:18;;;;;;;1.30;1.20;;;10.50;99.90;;;;;;5071025;28;20029;-68
2021/05/08 02:12:44;;;;;;;1.55;1.45;;;10.50;99.90;;;;;;5055912;28;20483;-69
2021/05/08 02:15:15;;;;;;;1.30;1.20;;;10.40;99.90;;;;;;5055201;28;20107;-68
2021/05/08 02:17:42;;;;;;;5.40;1.42;;;10.40;99.90;;;;;;5055654;28;20025;-69
2021/05/08 02:20:13;;;;;;;1.63;1.33;;;10.40;99.90;;;;;;5055698;28;20108;-70
2021/05/08 02:22:40;;;;;;;0.90;0.90;;;10.40;99.90;;;;;;5055596;28;20036;-68
2021/05/08 02:25:07;;;;;;;1.65;1.55;;;10.40;99.90;;;;;;5055720;28;20033;-68
2021/05/08 02:27:34;;;;;;;1.30;1.08;;;10.40;99.90;;;;;;5037379;28;20488;-68
2021/05/08 02:30:00;;;;;;;0.95;0.95;;;10.40;99.90;;;;;;5055612;28;20040;-69
2021/05/08 02:32:26;;;;;;;1.30;1.30;;;10.50;99.90;;;;;;5054935;28;20033;-69
2021/05/08 02:34:52;;;;;;;1.60;1.50;;;10.40;99.90;;;;;;5037297;28;20037;-69
2021/05/08 02:37:18;;;;;;;1.30;1.20;;;10.40;99.90;;;;;;5055206;28;20445;-69
2021/05/08 02:39:43;;;;;;;1.88;1.40;;;10.40;99.90;;;;;;5055134;28;20100;-70
2021/05/08 02:42:09;;;;;;;1.60;1.42;;;10.40;99.90;;;;;;5037172;28;20116;-68
2021/05/08 02:44:35;;;;;;;3.75;1.67;;;10.40;99.90;;;;;;5055097;28;20116;-68
2021/05/08 02:47:01;;;;;;;1.48;1.38;;;10.40;99.90;;;;;;5055014;28;20037;-68
2021/05/08 02:49:27;;;;;;;3.65;1.80;;;10.40;99.90;;;;;;5055247;28;20025;-68
2021/05/08 02:51:53;;;;;;;2.13;1.50;;;10.40;99.90;;;;;;5036950;28;20061;-68
2021/05/08 02:54:18;;;;;;;1.92;1.38;;;10.40;99.90;;;;;;5036033;28;20029;-69
2021/05/08 02:56:44;;;;;;;1.88;1.48;;;10.40;99.90;;;;;;5036887;28;20033;-68
2021/05/08 02:59:10;;;;;;;6.47;1.90;;;10.40;99.90;;;;;;5054318;28;20049;-68
2021/05/08 03:01:36;;;;;;;2.38;1.60;;;10.40;99.90;;;;;;5054784;28;20078;-69
2021/05/08 03:04:02;;;;;;;1.80;1.30;;;10.40;99.90;;;;;;5054811;28;20025;-69
2021/05/08 03:06:28;;;;;;;1.40;1.35;;;10.40;99.90;;;;;;5054660;28;20024;-69
2021/05/08 03:08:54;;;;;;;2.92;1.60;;;10.40;99.90;;;;;;5054622;28;20679;-70
2021/05/08 03:11:20;;;;;;;1.60;1.50;;;10.40;99.90;;;;;;5054565;28;20420;-70
2021/05/08 03:13:46;;;;;;;1.73;1.63;;;10.40;99.90;;;;;;5036588;28;20035;-69
2021/05/08 03:16:11;;;;;;;1.38;1.25;;;10.40;99.90;;;;;;5054380;28;20036;-69
2021/05/08 03:18:37;;;;;;;3.22;1.70;;;10.40;99.90;;;;;;5036470;28;20036;-70
2021/05/08 03:21:03;;;;;;;3.22;1.83;;;10.40;99.90;;;;;;5054356;28;20499;-69
2021/05/08 03:23:29;;;;;;;1.50;1.40;;;10.40;99.90;;;;;;5054600;28;20035;-70
2021/05/08 03:25:55;;;;;;;1.73;1.60;;;10.40;99.90;;;;;;5036280;28;20032;-69
2021/05/08 03:28:21;;;;;;;2.20;2.00;;;10.40;99.90;;;;;;5035928;28;20029;-70
2021/05/08 03:30:46;;;;;;;2.65;2.08;;;10.40;99.90;;;;;;5035931;28;20021;-69
2021/05/08 03:33:12;;;;;;;1.98;1.88;;;10.40;99.90;;;;;;5054088;28;20087;-69
2021/05/08 03:35:38;;;;;;;4.35;1.92;;;10.50;99.90;;;;;;5035584;28;20127;-70
2021/05/08 03:38:04;;;;;;;2.28;1.75;;;10.40;99.90;;;;;;5036050;28;20025;-69
2021/05/08 03:40:30;;;;;;;3.80;1.90;;;10.40;99.90;;;;;;5054000;28;20381;-69
2021/05/08 03:42:56;;;;;;;3.97;1.88;;;10.40;99.90;;;;;;5036020;28;20033;-69
2021/05/08 03:45:22;;;;;;;2.42;1.80;;;10.40;99.90;;;;;;5036037;28;20025;-69
2021/05/08 03:47:48;;;;;;;1.95;1.77;;;10.40;99.90;;;;;;5054093;28;20128;-69
2021/05/08 03:50:14;;;;;;;5.78;1.85;;;10.50;99.90;;;;;;5035896;28;20505;-69
2021/05/08 03:52:40;;;;;;;3.95;1.90;;;10.40;99.90;;;;;;5030805;28;20028;-69
2021/05/08 03:55:06;;;;;;;3.65;1.95;;;10.50;99.90;;;;;;5053686;28;20735;-70
2021/05/08 03:57:32;;;;;;;1.92;1.73;;;10.50;99.90;;;;;;5053378;28;20053;-68
2021/05/08 03:59:58;;;;;;;2.85;1.67;;;10.50;99.90;;;;;;5053357;28;20485;-69
2021/05/08 04:02:24;;;;;;;2.72;1.95;;;10.50;99.90;;;;;;5053627;28;20114;-68
2021/05/08 04:04:50;;;;;;;3.75;2.00;;;10.50;99.90;;;;;;5053242;28;20029;-68
2021/05/08 04:07:15;;;;;;;5.93;2.97;;;10.50;99.90;;;;;;5053464;28;20377;-68
2021/05/08 04:09:41;;;;;;;7.03;3.17;;;10.50;99.90;;;;;;5035507;28;20028;-69
2021/05/08 04:12:07;;;;;;;3.80;3.05;;;10.50;99.90;;;;;;5035493;28;20523;-70
2021/05/08 04:14:33;;;;;;;2.88;2.65;;;10.50;99.90;;;;;;5053349;28;20128;-69
2021/05/08 04:16:59;;;;;;;3.75;3.35;;;10.50;99.90;;;;;;5053627;28;20104;-70
2021/05/08 04:19:25;;;;;;;2.55;2.35;;;10.60;99.90;;;;;;5053009;28;20040;-70
2021/05/08 04:21:50;;;;;;;5.30;2.50;;;10.60;99.90;;;;;;5053266;28;20025;-72
2021/05/08 04:24:16;;;;;;;2.65;2.45;;;10.60;99.90;;;;;;5053275;28;20094;-70
2021/05/08 04:26:42;;;;;;;3.83;2.55;;;10.60;99.90;;;;;;5053453;28;20056;-70
2021/05/08 04:29:08;;;;;;;2.83;2.55;;;10.60;99.90;;;;;;5053063;28;20090;-70
2021/05/08 04:31:35;;;;;;;3.58;2.80;;;10.60;99.90;;;;;;5033676;28;20068;-70
2021/05/08 04:34:01;;;;;;;6.63;2.67;;;10.60;99.90;;;;;;5052904;28;20029;-70
2021/05/08 04:36:27;;;;;;;3.53;2.70;;;10.70;99.90;;;;;;5053020;28;20115;-70
2021/05/08 04:38:53;;;;;;;2.97;2.50;;;10.70;99.90;;;;;;5052814;28;20056;-70
2021/05/08 04:41:19;;;;;;;2.42;2.22;;;10.70;99.90;;;;;;5052999;28;20086;-67
2021/05/08 04:43:44;;;;;;;6.47;2.85;;;10.80;99.90;;;;;;5035088;28;20025;-70
2021/05/08 04:46:10;;;;;;;3.22;2.35;;;10.80;99.90;;;;;;5034371;28;20033;-70
2021/05/08 04:48:36;;;;;;;3.83;3.08;;;10.90;99.90;;;;;;5052985;28;20029;-70
2021/05/08 04:51:02;;;;;;;2.78;2.40;;;10.90;99.90;;;;;;5034992;28;20036;-69
2021/05/08 04:53:28;;;;;;;5.40;2.78;;;11.00;99.90;;;;;;5052911;28;20078;-69
2021/05/08 04:55:54;;;;;;;4.55;2.75;;;11.00;99.90;;;;;;5034970;28;20170;-70
2021/05/08 04:58:20;;;;;;;4.43;2.83;;;11.00;99.90;;;;;;5052780;28;20045;-70
2021/05/08 05:12:00;;;;;;;2.90;2.58;;;11.00;99.90;;;;;;5069967;28;20585;-71
2021/05/08 05:14:27;;;;;;;6.15;2.92;;;11.40;99.90;;;;;;5050279;28;20048;-72
2021/05/08 05:16:53;;;;;;;4.97;3.33;;;11.30;99.90;;;;;;5048905;28;20112;-72
2021/05/08 05:19:19;;;;;;;2.80;2.55;;;11.30;99.90;;;;;;5050056;28;20067;-70
2021/05/08 05:21:45;;;;;;;4.85;2.60;;;11.30;99.90;;;;;;5050114;28;20029;-71
2021/05/08 05:24:11;;;;;;;3.22;2.70;;;11.20;99.90;;;;;;5048717;28;20025;-70
2021/05/08 05:26:37;;;;;;;4.00;2.65;;;11.40;99.90;;;;;;5050096;28;20025;-71
2021/05/08 05:29:03;;;;;;;3.38;2.75;;;11.40;99.90;;;;;;5049780;28;20030;-73
2021/05/08 05:31:29;;;;;;;2.85;2.58;;;11.40;99.90;;;;;;5048632;28;20112;-71
2021/05/08 05:33:55;;;;;;;3.13;2.55;;;11.40;99.90;;;;;;5049887;28;20022;-70
2021/05/08 05:36:21;;;;;;;3.67;2.25;;;11.50;99.90;;;;;;5050160;28;20029;-69
2021/05/08 05:38:47;;;;;;;3.38;2.10;;;11.60;99.90;;;;;;5049825;28;20036;-71
2021/05/08 05:41:13;;;;;;;2.28;2.00;;;11.50;99.90;;;;;;5049356;28;20068;-71
2021/05/08 05:43:39;;;;;;;2.47;1.98;;;11.40;99.90;;;;;;5049712;28;20037;-71
2021/05/08 05:46:04;;;;;;;3.97;2.38;;;11.40;99.90;;;;;;5049437;28;20429;-70
2021/05/08 05:48:30;;;;;;;4.93;2.00;;;11.40;99.90;;;;;;5049591;28;20032;-70
2021/05/08 05:50:56;;;;;;;2.95;2.17;;;11.40;99.90;;;;;;5049555;28;20494;-71
2021/05/08 05:53:22;;;;;;;2.00;1.75;;;11.40;99.90;;;;;;5048208;28;20074;-71
2021/05/08 05:55:48;;;;;;;2.05;1.85;;;11.40;99.90;;;;;;5049478;28;20029;-71
2021/05/08 05:58:13;;;;;;;2.42;1.67;;;11.30;99.90;;;;;;5048075;28;20025;-73
2021/05/08 06:00:39;;;;;;;3.55;2.15;;;11.30;99.90;;;;;;5048099;28;20040;-72
2021/05/08 06:03:05;;;;;;;3.30;2.20;;;11.30;99.90;;;;;;5048034;28;20394;-71
2021/05/08 06:05:31;;;;;;;4.95;2.42;;;11.30;99.90;;;;;;5049305;28;20033;-70
2021/05/08 06:07:57;;;;;;;3.33;2.28;;;11.30;99.90;;;;;;5049269;28;20025;-71
2021/05/08 06:10:23;;;;;;;3.22;2.50;;;11.40;99.90;;;;;;5047668;28;20045;-72
2021/05/08 06:12:49;;;;;;;3.05;2.05;;;11.50;99.90;;;;;;5035448;28;20029;-70
2021/05/08 06:15:15;;;;;;;4.45;2.38;;;11.40;99.00;;;;;;5035908;28;20029;-72
2021/05/08 06:17:41;;;;;;;4.30;2.38;;;11.40;99.90;;;;;;5034382;28;20026;-71
2021/05/08 06:20:08;;;;;;;3.08;2.55;;;11.50;99.90;;;;;;5035725;28;20038;-73
2021/05/08 06:22:34;;;;;;;2.28;2.08;;;11.50;99.90;;;;;;5035726;28;20030;-71
2021/05/08 06:25:00;;;;;;;2.30;2.10;;;11.50;99.90;;;;;;5035450;28;20525;-72
2021/05/08 06:27:27;;;;;;;1.90;1.80;;;11.60;99.90;;;;;;5035583;28;20104;-71
2021/05/08 06:29:53;;;;;;;4.30;2.70;;;11.60;99.70;;;;;;5035571;28;20028;-73
2021/05/08 06:32:19;;;;;;;2.38;2.10;;;11.70;99.70;;;;;;5035103;28;20026;-72
2021/05/08 06:34:44;;;;;;;3.38;2.45;;;11.70;98.30;;;;;;5034628;28;20370;-75
2021/05/08 06:37:10;;;;;;;2.55;2.17;;;11.80;98.40;;;;;;5034826;28;20373;-69
2021/05/08 06:39:36;;;;;;;2.50;2.30;;;11.80;97.00;;;;;;5033973;28;20120;-72
2021/05/08 06:42:02;;;;;;;6.47;2.30;;;11.80;97.40;;;;;;5034018;28;20034;-71
2021/05/08 06:44:28;;;;;;;2.85;2.00;;;11.80;96.30;;;;;;5034114;28;20030;-75
2021/05/08 06:46:57;;;;;;;2.53;2.22;;;11.90;97.60;;;;;;5035282;28;20028;-71
2021/05/08 06:49:23;;;;;;;3.67;2.30;;;12.00;96.10;;;;;;5035049;28;20021;-70
2021/05/08 06:51:49;;;;;;;4.68;2.22;;;12.10;96.90;;;;;;5032779;28;20386;-71
2021/05/08 06:54:33;;;;;;;2.42;2.00;;;12.20;99.00;;;;;;5033692;28;20025;-72
2021/05/08 06:56:59;;;;;;;3.75;2.90;;;12.30;97.10;;;;;;5033659;28;20072;-74
2021/05/08 06:59:25;;;;;;;4.40;2.28;;;12.30;96.00;;;;;;5033547;28;20032;-72
2021/05/08 07:01:51;;;;;;;2.60;2.40;;;12.30;95.40;;;;;;5032886;28;20124;-72
2021/05/08 07:04:17;;;;;;;3.85;2.80;;;12.30;95.40;;;;;;5034867;28;20033;-71
2021/05/08 07:06:43;;;;;;;3.58;2.42;;;12.40;95.70;;;;;;5033519;28;20032;-71
2021/05/08 07:09:10;;;;;;;3.17;2.45;;;12.50;95.00;;;;;;5033511;28;20021;-71
2021/05/08 07:11:35;;;;;;;3.88;2.88;;;12.60;94.50;;;;;;5033013;28;20049;-71
2021/05/08 07:14:01;;;;;;;3.20;2.63;;;12.70;94.90;;;;;;5034721;28;20026;-73
2021/05/08 07:16:27;;;;;;;3.33;2.22;;;12.70;94.80;;;;;;5033310;28;20025;-70
2021/05/08 07:18:53;;;;;;;2.67;2.30;;;12.80;94.80;;;;;;5033522;28;20080;-71
2021/05/08 07:21:19;;;;;;;4.43;2.65;;;12.90;94.40;;;;;;5033165;28;20029;-71
2021/05/08 07:23:45;;;;;;;2.92;2.25;;;12.90;91.30;;;;;;5033518;28;20029;-71
2021/05/08 07:26:11;;;;;;;5.00;2.92;;;13.00;93.30;;;;;;5034559;28;20022;-71
2021/05/08 07:28:37;;;;;;;2.88;2.30;;;13.00;93.30;;;;;;5034410;28;20030;-71
2021/05/08 07:31:03;;;;;;;2.30;2.10;;;13.10;93.10;;;;;;5034725;28;20069;-71
2021/05/08 07:33:29;;;;;;;2.47;2.38;;;13.30;92.90;;;;;;5034285;28;20370;-71
2021/05/08 07:35:55;;;;;;;2.63;2.42;;;13.30;92.90;;;;;;5032962;28;20026;-71
2021/05/08 07:38:21;;;;;;;3.25;2.95;;;13.40;93.30;;;;;;5032926;28;20057;-74
2021/05/08 07:40:51;;;;;;;2.85;2.55;;;13.40;92.50;;;;;;5032796;28;20037;-73
2021/05/08 07:43:20;;;;;;;3.15;2.60;;;13.50;92.80;;;;;;5032790;28;20490;-70
2021/05/08 07:45:48;;;;;;;3.88;2.65;;;13.50;90.70;;;;;;5034383;28;20030;-73
2021/05/08 07:48:14;;;;;;;2.80;2.00;;;13.60;90.50;;;;;;5033963;28;20041;-71
2021/05/08 07:50:40;;;;;;;3.30;2.83;;;13.60;90.70;;;;;;5033995;28;20029;-72
2021/05/08 07:53:06;;;;;;;3.67;2.65;;;13.70;91.40;;;;;;5032646;28;20116;-74
2021/05/08 07:55:33;;;;;;;4.22;2.80;;;13.80;89.50;;;;;;5032626;28;20025;-70
2021/05/08 07:57:59;;;;;;;2.90;2.60;;;13.90;90.10;;;;;;5033868;28;20131;-71
2021/05/08 08:00:25;;;;;;;2.38;2.20;;;14.00;90.90;;;;;;5033625;28;20052;-71
2021/05/08 08:02:51;;;;;;;2.55;2.33;;;14.00;90.40;;;;;;5033780;28;20036;-71
2021/05/08 08:05:19;;;;;;;2.58;2.38;;;14.20;88.80;;;;;;5027351;28;20041;-72
2021/05/08 08:07:45;;;;;;;3.47;2.40;;;14.30;91.80;;;;;;5021819;28;20366;-72
2021/05/08 08:10:11;;;;;;;2.75;2.40;;;14.50;89.70;;;;;;5027380;28;20045;-71
2021/05/08 08:12:41;;;;;;;5.25;2.63;;;14.50;90.50;;;;;;5043502;28;20033;-71
2021/05/08 08:15:09;;;;;;;3.00;2.60;;;14.60;90.40;;;;;;5041938;28;20036;-71
2021/05/08 08:17:35;;;;;;;2.53;2.30;;;14.30;87.50;;;;;;5041593;28;20036;-71
2021/05/08 08:20:04;;;;;;;5.28;2.30;;;14.30;87.20;;;;;;5042939;28;20059;-70
2021/05/08 08:22:30;;;;;;;3.55;2.22;;;14.60;87.50;;;;;;5042062;28;20034;-72
2021/05/08 08:24:56;;;;;;;2.38;2.15;;;14.80;87.20;;;;;;5043682;28;20052;-72
2021/05/08 08:27:22;;;;;;;2.85;2.20;;;15.10;86.70;;;;;;5043554;28;20025;-71
2021/05/08 08:29:48;;;;;;;3.42;2.42;;;15.30;85.70;;;;;;5041089;28;20025;-71
2021/05/08 08:32:13;;;;;;;4.38;2.17;;;15.40;87.80;;;;;;5041763;28;20032;-71
2021/05/08 08:34:41;;;;;;;6.72;2.28;;;15.40;88.60;;;;;;5042519;28;20029;-72
2021/05/08 08:37:07;;;;;;;2.35;2.15;;;15.50;85.80;;;;;;5025246;28;20028;-69
2021/05/08 08:39:33;;;;;;;2.38;2.17;;;15.50;82.20;;;;;;5023781;28;20064;-71
2021/05/08 08:41:59;;;;;;;1.67;1.58;;;15.60;83.60;;;;;;5041304;28;20061;-71
2021/05/08 08:44:25;;;;;;;1.65;1.55;;;15.60;78.90;;;;;;5025041;28;20036;-72
2021/05/08 08:46:52;;;;;;;2.05;1.85;;;15.70;75.40;;;;;;5041189;28;20037;-71
2021/05/08 08:49:18;;;;;;;2.70;2.08;;;16.00;79.00;;;;;;5023459;28;20116;-71
2021/05/08 08:51:44;;;;;;;3.10;2.17;;;16.20;82.00;;;;;;5025584;28;20036;-70
2021/05/08 08:54:12;;;;;;;2.38;1.80;;;16.30;81.00;;;;;;5042644;28;20052;-72
2021/05/08 08:56:44;;;;;;;1.75;1.60;;;15.90;78.50;;;;;;5041251;28;20033;-71
2021/05/08 09:01:46;;;;;;;1.63;1.52;;;15.50;73.70;;;;;;5041451;28;20119;-71
2021/05/08 09:04:13;;;;;;;4.78;1.70;;;15.80;70.90;;;;;;5024742;28;20036;-72
2021/05/08 09:06:43;;;;;;;1.92;1.65;;;;;;;;;;5020151;28;20352;-72
2021/05/08 09:09:10;;;;;;;1.80;1.70;;;16.30;71.60;;;;;;5032877;28;20022;-72
2021/05/08 09:11:55;;;;;;;1.98;1.77;;;16.70;71.00;;;;;;5032903;28;20128;-72
2021/05/08 09:14:23;;;;;;;2.08;1.88;;;16.70;71.00;;;;;;5032784;28;20450;-71
2021/05/08 09:17:15;;;;;;;2.10;1.70;;;16.90;74.70;;;;;;5032909;28;20057;-71
2021/05/08 09:19:41;;;;;;;;;;;16.50;69.70;;;;;;5032928;28;20356;-71
2021/05/08 09:22:31;;;;;;;1.33;1.33;;;16.60;65.30;;;;;;5032721;28;19913;-72
2021/05/08 09:25:13;;;;;;;1.70;1.60;;;17.00;69.50;;;;;;5022926;28;20493;-71
2021/05/08 09:27:50;;;;;;;3.50;1.42;;;17.10;68.50;;;;;;5032780;28;20112;-73
2021/05/08 09:30:19;;;;;;;1.40;1.30;;;16.90;69.30;;;;;;5032618;28;20485;-71
2021/05/08 09:32:56;;;;;;;1.70;1.60;;;16.80;68.50;;;;;;5014836;28;20061;-70
2021/05/08 09:35:36;;;;;;;1.42;1.33;;;16.90;68.60;;;;;;5014879;28;20036;-72
2021/05/08 09:38:09;;;;;;;1.52;1.25;;;17.20;65.80;;;;;;5032684;28;20035;-71
2021/05/08 09:40:37;;;;;;;1.50;1.40;;;17.10;62.20;;;;;;5032533;28;20033;-71
2021/05/08 09:43:12;;;;;;;1.48;1.38;;;17.00;64.30;;;;;;5032523;28;20025;-71
2021/05/08 09:45:40;;;;;;;4.32;1.20;;;17.40;68.90;;;;;;5032561;28;20025;-71
2021/05/08 09:48:19;;;;;;;1.40;1.30;;;17.60;65.30;;;;;;5035695;28;20132;-71
2021/05/08 09:50:44;;;;;;;1.48;1.38;;;17.90;61.40;;;;;;5036189;28;20355;-73
2021/05/08 09:53:10;;;;;;;1.48;1.38;;;18.10;63.40;;;;;;5035836;28;20040;-71
2021/05/08 09:55:36;;;;;;;3.22;1.38;;;18.60;66.90;;;;;;5036128;28;20087;-72
2021/05/08 09:58:07;;;;;;;1.00;1.00;;;18.60;60.60;;;;;;5018172;28;20029;-71
2021/05/08 10:00:38;;;;;;;2.30;1.17;;;18.80;64.70;;;;;;5018254;28;20068;-70
2021/05/08 10:03:13;;;;;;;1.50;1.40;;;18.70;58.90;;;;;;5017890;28;20030;-71
2021/05/08 10:05:40;;;;;;;1.52;1.42;;;18.20;58.50;;;;;;5036000;28;20037;-72
2021/05/08 10:08:08;;;;;;;1.10;1.10;;;18.30;62.60;;;;;;5035998;28;20021;-72
2021/05/08 10:10:34;;;;;;;1.55;1.17;;;18.60;58.40;;;;;;5035613;28;20390;-71
2021/05/08 10:13:09;;;;;;;1.38;1.27;;;18.50;55.60;;;;;;5035834;28;20109;-72
2021/05/08 10:15:38;;;;;;;1.40;1.30;;;18.50;54.40;;;;;;5017986;28;20093;-73
2021/05/08 10:18:05;;;;;;;1.05;1.05;;;18.40;54.50;;;;;;5035642;28;20029;-71
2021/05/08 10:20:32;;;;;;;1.35;1.30;;;18.80;56.80;;;;;;5019913;28;20037;-72
2021/05/08 10:23:04;;;;;;;2.92;1.63;;;19.10;55.80;;;;;;5042505;28;20044;-72
2021/05/08 10:25:30;;;;;;;1.92;1.40;;;18.90;55.90;;;;;;5025557;28;20026;-72
2021/05/08 10:27:56;;;;;;;2.05;1.38;;;19.00;56.70;;;;;;5044410;28;20507;-71
2021/05/08 10:30:30;;;;;;;4.25;1.63;;;;;;;;;;5026663;28;20120;-71
2021/05/08 10:32:58;;;;;;;2.72;1.48;;;20.60;52.30;;;;;;5043761;28;20017;-72
2021/05/08 10:35:37;;;;;;;1.73;1.48;;;20.80;55.30;;;;;;5036337;28;20041;-74
2021/05/08 10:38:27;;;;;;;1.60;1.50;;;20.70;55.30;;;;;;5035446;28;20079;-72
2021/05/08 10:41:02;;;;;;;1.75;1.65;;;19.60;52.70;;;;;;5035251;28;20052;-72
2021/05/08 10:43:41;;;;;;;1.77;1.67;;;20.80;53.50;;;;;;5017362;28;20124;-72
2021/05/08 10:46:11;;;;;;;3.25;1.70;;;21.90;50.20;;;;;;5017240;28;20029;-71
2021/05/08 10:49:09;;;;;;;2.33;1.77;;;22.00;49.30;;;;;;5035175;28;20029;-71
2021/05/08 10:51:56;;;;;;;2.88;1.73;;;22.70;46.30;;;;;;5034878;28;20182;-71
2021/05/08 10:54:43;;;;;;;1.50;1.40;;;23.10;45.50;;;;;;5017438;28;20397;-72
2021/05/08 10:57:26;;;;;;;1.00;1.00;;;23.50;42.40;;;;;;5034935;28;20029;-72
2021/05/08 11:00:01;;;;;;;1.48;1.38;;;;;;;;;;5034889;28;20037;-71
2021/05/08 11:02:45;;;;;;;1.40;1.27;;;25.30;37.60;;;;;;5017307;28;20496;-72
2021/05/08 11:05:21;;;;;;;1.83;1.45;;;25.90;40.80;;;;;;5016950;28;20473;-70
2021/05/08 11:07:47;;;;;;;1.05;1.00;;;25.40;39.20;;;;;;5034841;28;20524;-72
2021/05/08 11:10:34;;;;;;;1.20;1.20;;;25.50;37.00;;;;;;5013173;28;20050;-73
2021/05/08 11:13:10;;;;;;;1.23;1.13;;;26.10;37.20;;;;;;5013617;28;20501;-72
2021/05/08 11:16:03;;;;;;;1.83;1.50;;;25.20;39.60;;;;;;5014510;28;20025;-73
2021/05/08 11:20:59;;;;;;;1.58;1.45;;;24.00;41.10;;;;;;5014701;28;20034;-71
2021/05/08 11:23:25;;;;;;;2.78;1.30;;;24.30;37.40;;;;;;5014666;28;20030;-72
2021/05/08 11:25:51;;;;;;;1.38;1.35;;;25.10;37.80;;;;;;5014692;28;20053;-71
2021/05/08 11:28:17;;;;;;;2.00;1.70;;;25.10;39.40;;;;;;5013984;28;20033;-70
2021/05/08 11:30:56;;;;;;;1.50;1.40;;;25.40;38.20;;;;;;5034293;28;20055;-69
2021/05/08 11:33:24;;;;;;;2.70;1.33;;;25.40;35.50;;;;;;5034134;28;20429;-72
2021/05/08 11:36:03;;;;;;;1.85;1.75;;;25.40;36.70;;;;;;5033830;28;20057;-70
2021/05/08 11:38:29;;;;;;;1.50;1.40;;;27.10;37.00;;;;;;5033944;28;20039;-70
2021/05/08 11:40:55;;;;;;;4.10;1.77;;;24.10;38.40;;;;;;5033625;28;20104;-72
2021/05/08 11:43:26;;;;;;;1.50;1.40;;;22.60;41.30;;;;;;5032753;28;20029;-74
2021/05/08 11:45:55;;;;;;;1.50;1.40;;;24.80;37.50;;;;;;5032804;28;20029;-70
2021/05/08 11:48:20;;;;;;;1.33;1.30;;;26.20;38.80;;;;;;5034073;28;20092;-70
2021/05/08 11:50:47;;;;;;;1.98;1.75;;;27.70;36.30;;;;;;5034286;28;20478;-71
2021/05/08 11:53:19;;;;;;;1.40;1.30;;;;;;;;;;5033864;28;20025;-71
2021/05/08 11:55:46;;;;;;;1.40;1.30;;;;;;;;;;5033852;28;20031;-71
2021/05/08 11:58:25;;;;;;;3.33;1.65;;;;;;;;;;5032570;28;20409;-72
2021/05/08 12:00:51;;;;;;;5.78;2.03;;;;;;;;;;5033795;28;20025;-72
2021/05/08 12:03:17;;;;;;;1.50;1.40;;;;;;;;;;5032239;28;20123;-72
2021/05/08 12:05:45;;;;;;;1.65;1.35;;;;;;;;;;5032353;28;20500;-71
2021/05/08 12:08:13;;;;;;;3.13;2.20;;;25.40;37.30;;;;;;5033732;28;20025;-71
2021/05/08 12:10:41;;;;;;;2.97;1.60;;;;;;;;;;5041945;28;20049;-72
2021/05/08 12:13:08;;;;;;;1.88;1.42;;;;;;;;;;5053598;28;20017;-70
2021/05/08 12:15:38;;;;;;;2.00;1.48;;;;;;;;;;5053551;28;20523;-70
2021/05/08 12:18:08;;;;;;;1.30;1.20;;;;;;;;;;5053472;28;20020;-72
2021/05/08 12:20:38;;;;;;;1.00;1.00;;;;;;;;;;5053359;28;20082;-69
2021/05/08 12:23:10;;;;;;;1.23;1.10;;;;;;;;;;5053375;28;20029;-70
2021/05/08 12:25:36;;;;;;;1.05;1.05;;;;;;;;;;5053417;28;20508;-73
2021/05/08 12:28:14;;;;;;;1.90;1.80;;;;;;;;;;5053583;28;20119;-71
2021/05/08 12:30:41;;;;;;;1.08;1.08;;;;;;;;;;5053280;28;20059;-73
2021/05/08 12:33:15;;;;;;;0.88;0.88;;;;;;;;;;5035356;28;20021;-72
2021/05/08 12:35:41;;;;;;;2.00;1.20;;;;;;;;;;5035337;28;20032;-72
2021/05/08 12:38:25;;;;;;;1.30;1.30;;;;;;;;;;5035280;28;20033;-72
2021/05/08 12:40:52;;;;;;;1.40;1.10;;;;;;;;;;5035170;28;20021;-74
2021/05/08 12:43:25;;;;;;;1.05;1.05;;;;;;;;;;5053018;28;20083;-73
2021/05/08 12:46:08;;;;;;;1.58;1.48;;;;;;;;;;5052702;28;20359;-72
2021/05/08 12:48:39;;;;;;;1.52;1.42;;;;;;;;;;5052982;28;20025;-74
2021/05/08 12:51:24;;;;;;;6.40;1.45;;;;;;;;;;5052916;28;20115;-75
2021/05/08 12:54:10;;;;;;;2.28;1.20;;;;;;;;;;5034967;28;20033;-71
2021/05/08 12:56:36;;;;;;;1.23;1.23;;;;;;;;;;5034861;28;20033;-72
2021/05/08 12:59:03;;;;;;;1.27;1.15;;;;;;;;;;5052925;28;20029;-71
2021/05/08 13:01:30;;;;;;;1.52;1.42;;;;;;;;;;5052842;28;20037;-70
2021/05/08 13:03:56;;;;;;;2.25;1.20;;;;;;;;;;5052785;28;20044;-73
2021/05/08 13:06:25;;;;;;;1.30;1.30;;;;;;;;;;5052779;28;20025;-73
2021/05/08 13:08:53;;;;;;;1.90;1.33;;;;;;;;;;5052850;28;20074;-76
2021/05/08 13:11:31;;;;;;;1.30;1.20;;;;;;;;;;5052386;28;20098;-74
2021/05/08 13:14:16;;;;;;;1.80;1.30;;;;;;;;;;5052494;28;20109;-72
2021/05/08 13:16:43;;;;;;;1.35;1.25;;;;;;;;;;5052663;28;20039;-71
2021/05/08 13:19:09;;;;;;;1.30;1.20;;;;;;;;;;5052731;28;20066;-74
2021/05/08 13:21:36;;;;;;;1.30;1.20;;;;;;;;;;5035527;28;20055;-70
2021/05/08 13:24:02;;;;;;;2.00;1.90;;;;;;;;;;5056877;28;20029;-73